createdAt,value
2023-04-13T00:00:32.392Z,99290.97
2023-04-13T00:03:00.392Z,99291.56
2023-04-13T00:05:28.178Z,99283.91
2023-04-13T00:07:55.399Z,99289.91
2023-04-13T00:10:22.617Z,99281.88
2023-04-13T00:12:49.653Z,99288.31
2023-04-13T00:15:19.214Z,99284.88
2023-04-13T00:17:47.469Z,99279.84
2023-04-13T00:20:14.655Z,99282.28
2023-04-13T00:22:45.600Z,99284.69
2023-04-13T00:25:14.802Z,99278.22
2023-04-13T00:27:43.317Z,99271.41
2023-04-13T00:30:12.507Z,99273.19
2023-04-13T00:32:40.749Z,99283.09
2023-04-13T00:35:08.525Z,99277.81
2023-04-13T00:37:35.039Z,99262.53
2023-04-13T00:40:01.740Z,99267.97
2023-04-13T00:42:28.181Z,99263.75
2023-04-13T00:44:54.895Z,99261.53
2023-04-13T00:47:27.521Z,99270.16
2023-04-13T00:49:55.800Z,99250.88
2023-04-13T00:52:22.814Z,99254.91
2023-04-13T00:54:51.557Z,99261.13
2023-04-13T00:57:19.887Z,99269.81
2023-04-13T00:59:49.427Z,99263.75
2023-04-13T01:02:16.781Z,99263.75
2023-04-13T01:04:49.219Z,99267.56
2023-04-13T01:07:19.778Z,99265.19
2023-04-13T01:10:00.119Z,99266.44
2023-04-13T01:12:48.963Z,99257.38
2023-04-13T01:15:16.841Z,99252.56
2023-04-13T01:17:54.054Z,99258.19
2023-04-13T01:20:21.360Z,99246.91
2023-04-13T01:22:55.608Z,99253.16
2023-04-13T01:25:40.737Z,99256.19
2023-04-13T01:28:09.621Z,99248.34
2023-04-13T01:30:37.622Z,99246.13
2023-04-13T01:33:04.654Z,99255.00
2023-04-13T01:35:32.000Z,99247.53
2023-04-13T01:37:59.066Z,99252.19
2023-04-13T01:40:27.173Z,99248.13
2023-04-13T01:42:53.597Z,99241.09
2023-04-13T01:45:23.668Z,99233.63
2023-04-13T01:48:06.793Z,99243.94
2023-04-13T01:50:36.010Z,99245.53
2023-04-13T01:53:08.604Z,99261.84
2023-04-13T01:55:38.282Z,99249.78
2023-04-13T01:58:06.358Z,99238.50
2023-04-13T02:00:37.027Z,99234.84
2023-04-13T02:03:05.196Z,99235.47
2023-04-13T02:05:38.203Z,99240.09
2023-04-13T02:08:06.425Z,99239.31
2023-04-13T02:10:37.618Z,99231.84
2023-04-13T02:13:04.407Z,99240.50
2023-04-13T02:15:36.015Z,99235.06
2023-04-13T02:18:03.261Z,99253.81
2023-04-13T02:20:30.619Z,99235.66
2023-04-13T02:22:57.044Z,99238.09
2023-04-13T02:25:23.841Z,99244.53
2023-04-13T02:27:51.495Z,99244.34
2023-04-13T02:30:17.864Z,99256.22
2023-04-13T02:32:49.449Z,99245.34
2023-04-13T02:35:16.069Z,99251.81
2023-04-13T02:37:42.455Z,99244.53
2023-04-13T02:40:12.760Z,99248.59
2023-04-13T02:42:39.423Z,99244.53
2023-04-13T02:45:08.375Z,99249.97
2023-04-13T02:47:34.934Z,99250.78
2023-04-13T02:50:02.014Z,99244.34
2023-04-13T02:52:28.487Z,99244.13
2023-04-13T02:54:55.336Z,99251.22
2023-04-13T02:57:22.435Z,99251.59
2023-04-13T02:59:49.846Z,99252.22
2023-04-13T03:02:17.216Z,99259.06
2023-04-13T03:04:44.309Z,99258.25
2023-04-13T03:07:14.584Z,99264.13
2023-04-13T03:09:41.352Z,99261.50
2023-04-13T03:12:07.787Z,99260.69
2023-04-13T03:14:34.210Z,99265.94
2023-04-13T03:17:00.844Z,99263.09
2023-04-13T03:19:28.541Z,99269.97
2023-04-13T03:21:55.113Z,99270.78
2023-04-13T03:24:21.578Z,99268.34
2023-04-13T03:26:47.978Z,99286.09
2023-04-13T03:29:14.507Z,99281.66
2023-04-13T03:31:41.570Z,99261.69
2023-04-13T03:34:08.055Z,99272.38
2023-04-13T03:36:34.438Z,99278.63
2023-04-13T03:39:02.170Z,99267.34
2023-04-13T03:41:28.692Z,99309.88
2023-04-13T03:43:55.179Z,99281.03
2023-04-13T03:46:21.917Z,99284.66
2023-04-13T03:48:48.348Z,99278.81
2023-04-13T03:51:14.775Z,99278.22
2023-04-13T03:53:41.384Z,99303.44
2023-04-13T03:56:08.400Z,99283.06
2023-04-13T03:58:35.488Z,99288.50
2023-04-13T04:01:02.163Z,99297.75
2023-04-13T04:03:28.760Z,99304.81
2023-04-13T04:05:55.581Z,99313.88
2023-04-13T04:08:22.232Z,99310.03
2023-04-13T04:10:48.616Z,99310.16
2023-04-13T04:13:15.035Z,99318.63
2023-04-13T04:15:41.417Z,99330.06
2023-04-13T04:18:08.632Z,99318.63
2023-04-13T04:20:35.289Z,99331.09
2023-04-13T04:23:04.631Z,99335.69
2023-04-13T04:25:31.628Z,99342.75
2023-04-13T04:27:58.029Z,99334.72
2023-04-13T04:30:25.006Z,99333.03
2023-04-13T04:32:53.132Z,99345.34
2023-04-13T04:35:26.082Z,99342.31
2023-04-13T04:37:53.307Z,99349.41
2023-04-13T04:40:19.768Z,99348.41
2023-04-13T04:42:46.168Z,99353.84
2023-04-13T04:45:14.172Z,99368.53
2023-04-13T04:47:43.721Z,99369.56
2023-04-13T04:50:12.525Z,99394.56
2023-04-13T04:52:39.400Z,99378.06
2023-04-13T04:55:06.380Z,99379.66
2023-04-13T04:57:34.240Z,99392.75
2023-04-13T05:00:01.396Z,99393.34
2023-04-13T05:02:28.212Z,99391.16
2023-04-13T05:04:56.030Z,99400.84
2023-04-13T05:07:22.534Z,99403.22
2023-04-13T05:09:49.346Z,99402.84
2023-04-13T05:12:16.428Z,99409.88
2023-04-13T05:14:42.864Z,99419.53
2023-04-13T05:17:09.252Z,99426.41
2023-04-13T05:19:37.169Z,99427.66
2023-04-13T05:22:05.477Z,99427.03
2023-04-13T05:24:33.581Z,99436.72
2023-04-13T05:27:00.671Z,99442.16
2023-04-13T05:29:27.084Z,99453.22
2023-04-13T05:31:53.609Z,99457.25
2023-04-13T05:34:20.195Z,99455.88
2023-04-13T05:36:46.610Z,99463.13
2023-04-13T05:39:13.828Z,99459.69
2023-04-13T05:41:40.219Z,99469.59
2023-04-13T05:44:06.836Z,99467.34
2023-04-13T05:46:33.314Z,99469.63
2023-04-13T05:49:01.665Z,99482.69
2023-04-13T05:51:32.810Z,99484.09
2023-04-13T05:53:59.303Z,99490.19
2023-04-13T05:56:26.052Z,99497.63
2023-04-13T05:58:53.277Z,99502.69
2023-04-13T06:01:19.976Z,99520.25
2023-04-13T06:03:47.478Z,99517.41
2023-04-13T06:06:14.626Z,99521.84
2023-04-13T06:08:41.057Z,99529.91
2023-04-13T06:11:08.044Z,99525.13
2023-04-13T06:13:34.593Z,99534.81
2023-04-13T06:16:01.537Z,99535.44
2023-04-13T06:18:28.692Z,99543.47
2023-04-13T06:20:57.944Z,99543.09
2023-04-13T06:23:24.397Z,99548.53
2023-04-13T06:25:50.992Z,99552.53
2023-04-13T06:28:17.753Z,99561.06
2023-04-13T06:30:44.257Z,99565.97
2023-04-13T06:33:11.233Z,99573.84
2023-04-13T06:35:37.709Z,99577.69
2023-04-13T06:38:04.100Z,99591.41
2023-04-13T06:40:32.128Z,99585.75
2023-04-13T06:42:58.634Z,99586.16
2023-04-13T06:45:25.586Z,99595.81
2023-04-13T06:47:53.762Z,99586.13
2023-04-13T06:50:20.242Z,99587.94
2023-04-13T06:52:47.972Z,99587.16
2023-04-13T06:55:14.977Z,99586.59
2023-04-13T06:57:41.637Z,99590.88
2023-04-13T07:00:26.084Z,99588.75
2023-04-13T07:02:57.045Z,99595.63
2023-04-13T07:05:23.682Z,99611.81
2023-04-13T07:07:50.101Z,99608.50
2023-04-13T07:10:16.566Z,99614.19
2023-04-13T07:12:43.009Z,99609.06
2023-04-13T07:15:09.912Z,99617.34
2023-04-13T07:17:36.959Z,99623.81
2023-04-13T07:20:05.876Z,99616.38
2023-04-13T07:22:35.466Z,99615.97
2023-04-13T07:25:02.741Z,99622.25
2023-04-13T07:27:29.221Z,99627.69
2023-04-13T07:29:55.703Z,99623.44
2023-04-13T07:32:24.462Z,99627.66
2023-04-13T07:34:58.674Z,99630.88
2023-04-13T07:37:25.088Z,99640.13
2023-04-13T07:39:51.432Z,99645.97
2023-04-13T07:42:17.812Z,99647.22
2023-04-13T07:44:44.342Z,99639.72
2023-04-13T07:47:13.037Z,99638.53
2023-04-13T07:49:39.679Z,99655.66
2023-04-13T07:52:06.084Z,99653.38
2023-04-13T07:54:32.528Z,99660.88
2023-04-13T07:56:59.773Z,99671.19
2023-04-13T07:59:26.159Z,99669.16
2023-04-13T08:01:53.098Z,99665.13
2023-04-13T08:04:19.584Z,99663.69
2023-04-13T08:06:46.177Z,99679.66
2023-04-13T08:09:12.658Z,99672.84
2023-04-13T08:11:39.078Z,99677.09
2023-04-13T08:14:05.912Z,99682.38
2023-04-13T08:16:34.365Z,99689.09
2023-04-13T08:19:02.128Z,99686.69
2023-04-13T08:21:29.814Z,99688.94
2023-04-13T08:23:56.935Z,99693.63
2023-04-13T08:26:24.345Z,99698.06
2023-04-13T08:28:52.898Z,99701.06
2023-04-13T08:31:20.414Z,99700.84
2023-04-13T08:33:46.964Z,99700.03
2023-04-13T08:36:13.428Z,99703.03
2023-04-13T08:38:39.820Z,99703.22
2023-04-13T08:41:07.193Z,99710.91
2023-04-13T08:43:35.745Z,99711.34
2023-04-13T08:46:06.552Z,99712.78
2023-04-13T08:48:53.431Z,99707.91
2023-04-13T08:51:22.322Z,99712.56
2023-04-13T08:53:49.366Z,99712.38
2023-04-13T08:56:16.618Z,99724.28
2023-04-13T08:58:45.108Z,99732.38
2023-04-13T09:01:13.622Z,99735.22
2023-04-13T09:03:53.939Z,99735.97
2023-04-13T09:06:28.156Z,99739.63
2023-04-13T09:08:55.615Z,99747.50
2023-04-13T09:11:22.132Z,99755.22
2023-04-13T09:13:50.537Z,99755.84
2023-04-13T09:16:18.483Z,99749.81
2023-04-13T09:18:55.623Z,99767.84
2023-04-13T09:21:24.096Z,99758.19
2023-04-13T09:23:58.690Z,99762.63
2023-04-13T09:26:26.122Z,99760.97
2023-04-13T09:28:56.089Z,99767.88
2023-04-13T09:31:23.402Z,99770.06
2023-04-13T09:33:53.297Z,99766.84
2023-04-13T09:36:21.497Z,99772.94
2023-04-13T09:38:53.236Z,99764.66
2023-04-13T09:41:31.833Z,99782.25
2023-04-13T09:44:02.703Z,99787.91
2023-04-13T09:46:29.438Z,99788.13
2023-04-13T09:49:01.865Z,99809.16
2023-04-13T09:51:39.814Z,99799.84
2023-04-13T09:54:06.926Z,99800.06
2023-04-13T09:56:52.600Z,99801.47
2023-04-13T09:59:19.387Z,99808.16
2023-04-13T10:01:46.799Z,99798.31
2023-04-13T10:04:13.595Z,99800.78
2023-04-13T10:06:42.008Z,99798.38
2023-04-13T10:09:09.444Z,99802.41
2023-04-13T10:11:44.611Z,99797.13
2023-04-13T10:14:17.434Z,99800.88
2023-04-13T10:17:05.467Z,99800.19
2023-04-13T10:19:43.545Z,99804.25
2023-04-13T10:22:11.445Z,99812.22
2023-04-13T10:24:39.846Z,99812.34
2023-04-13T10:27:18.533Z,99806.91
2023-04-13T10:29:46.397Z,99810.38
2023-04-13T10:32:27.526Z,99828.00
2023-04-13T10:34:55.117Z,99833.25
2023-04-13T10:37:28.558Z,99827.78
2023-04-13T10:40:06.931Z,99833.66
2023-04-13T10:42:52.546Z,99835.47
2023-04-13T10:45:28.695Z,99840.13
2023-04-13T10:47:56.304Z,99838.50
2023-04-13T10:50:24.723Z,99842.59
2023-04-13T10:53:10.527Z,99848.22
2023-04-13T10:55:37.007Z,99845.81
2023-04-13T10:58:14.698Z,99853.72
2023-04-13T11:00:46.740Z,99851.47
2023-04-13T11:03:16.468Z,99847.19
2023-04-13T11:05:44.673Z,99849.50
2023-04-13T11:08:19.037Z,99854.78
2023-04-13T11:10:51.752Z,99862.31
2023-04-13T11:13:18.280Z,99866.41
2023-04-13T11:15:45.602Z,99860.13
2023-04-13T11:18:12.306Z,99857.44
2023-04-13T11:20:40.496Z,99862.56
2023-04-13T11:23:16.062Z,99865.16
2023-04-13T11:25:54.994Z,99872.97
2023-04-13T11:28:23.387Z,99870.94
2023-04-13T11:30:58.542Z,99877.78
2023-04-13T11:33:28.902Z,99879.63
2023-04-13T11:35:57.383Z,99880.31
2023-04-13T11:38:23.802Z,99877.66
2023-04-13T11:40:56.793Z,99875.50
2023-04-13T11:43:28.356Z,99891.75
2023-04-13T11:45:54.958Z,99887.63
2023-04-13T11:48:22.159Z,99888.38
2023-04-13T11:50:50.099Z,99884.00
2023-04-13T11:53:17.345Z,99896.47
2023-04-13T11:55:52.944Z,99895.56
2023-04-13T11:58:21.216Z,99896.41
2023-04-13T12:00:48.579Z,99903.09
2023-04-13T12:05:47.602Z,99911.22
2023-04-13T12:08:26.038Z,99916.66
2023-04-13T12:13:50.321Z,99910.66
2023-04-13T12:17:01.545Z,99909.03
2023-04-13T12:19:23.256Z,99930.84
2023-04-13T12:21:57.504Z,99918.88
2023-04-13T12:24:38.962Z,99915.50
2023-04-13T12:29:41.392Z,99917.81
2023-04-13T12:32:14.919Z,99915.09
2023-04-13T12:34:43.100Z,99927.28
2023-04-13T12:37:11.216Z,99913.31
2023-04-13T12:39:37.934Z,99922.16
2023-04-13T12:42:05.147Z,99917.78
2023-04-13T12:44:33.792Z,99925.63
2023-04-13T12:47:01.005Z,99926.31
2023-04-13T12:49:27.508Z,99921.66
2023-04-13T12:51:53.910Z,99919.03
2023-04-13T12:54:20.266Z,99922.41
2023-04-13T12:56:46.813Z,99924.72
2023-04-13T12:59:13.326Z,99924.38
2023-04-13T13:01:39.785Z,99928.94
2023-04-13T13:04:06.510Z,99934.09
2023-04-13T13:06:34.125Z,99940.66
2023-04-13T13:09:01.151Z,99953.59
2023-04-13T13:11:28.208Z,99955.63
2023-04-13T13:13:54.805Z,99951.97
2023-04-13T13:16:21.327Z,99957.47
2023-04-13T13:18:51.288Z,99962.41
2023-04-13T13:21:27.820Z,99945.63
2023-04-13T13:23:54.254Z,99952.09
2023-04-13T13:26:24.300Z,99943.78
2023-04-13T13:28:52.805Z,99957.41
2023-04-13T13:31:19.595Z,99948.97
2023-04-13T13:33:46.298Z,99946.72
2023-04-13T13:36:14.063Z,99948.47
2023-04-13T13:38:41.238Z,99957.63
2023-04-13T13:41:07.634Z,99960.50
2023-04-13T13:43:34.200Z,99956.09
2023-04-13T13:46:05.550Z,99959.97
2023-04-13T13:48:32.099Z,99960.38
2023-04-13T13:50:58.555Z,99963.47
2023-04-13T13:53:25.101Z,99967.66
2023-04-13T13:55:51.821Z,99969.59
2023-04-13T13:58:18.188Z,99962.16
2023-04-13T14:03:11.873Z,99960.72
2023-04-13T14:05:38.596Z,99963.03
2023-04-13T14:08:06.148Z,99973.44
2023-04-13T14:10:32.631Z,99967.25
2023-04-13T14:12:59.118Z,99961.38
2023-04-13T14:15:25.691Z,99964.88
2023-04-13T14:18:06.557Z,99965.81
2023-04-13T14:20:38.680Z,99963.38
2023-04-13T14:23:05.712Z,99967.81
2023-04-13T14:25:32.156Z,99966.59
2023-04-13T14:27:58.546Z,99967.06
2023-04-13T14:30:27.457Z,99972.81
2023-04-13T14:32:54.564Z,99983.06
2023-04-13T14:35:21.088Z,99981.81
2023-04-13T14:37:47.566Z,99974.44
2023-04-13T14:40:14.445Z,99972.88
2023-04-13T14:42:41.086Z,99975.41
2023-04-13T14:45:10.430Z,99984.94
2023-04-13T14:47:37.421Z,99981.38
2023-04-13T14:50:04.683Z,99973.66
2023-04-13T14:52:31.565Z,99978.72
2023-04-13T14:54:57.974Z,99969.47
2023-04-13T14:57:24.447Z,99973.16
2023-04-13T14:59:51.381Z,99974.44
2023-04-13T15:02:19.116Z,99979.75
2023-04-13T15:04:45.679Z,99989.53
2023-04-13T15:07:12.647Z,99986.03
2023-04-13T15:09:40.045Z,99988.34
2023-04-13T15:12:12.373Z,99999.59
2023-04-13T15:14:40.588Z,100002.13
2023-04-13T15:17:08.371Z,100002.50
2023-04-13T15:19:34.814Z,100003.78
2023-04-13T15:22:01.197Z,99997.34
2023-04-13T15:24:27.655Z,100004.13
2023-04-13T15:26:54.325Z,100001.31
2023-04-13T15:29:21.337Z,100005.72
2023-04-13T15:31:47.792Z,100003.66
2023-04-13T15:34:14.252Z,100013.75
2023-04-13T15:36:40.685Z,100002.00
2023-04-13T15:39:07.395Z,100002.31
2023-04-13T15:41:34.358Z,99999.84
2023-04-13T15:44:01.823Z,99994.53
2023-04-13T15:46:28.435Z,100010.03
2023-04-13T15:48:56.101Z,100008.44
2023-04-13T15:51:23.168Z,100007.97
2023-04-13T15:53:49.575Z,100010.50
2023-04-13T15:56:16.094Z,100019.28
2023-04-13T15:58:42.506Z,100020.09
2023-04-13T16:01:13.013Z,100023.16
2023-04-13T16:03:40.393Z,100020.91
2023-04-13T16:06:07.795Z,100018.91
2023-04-13T16:08:34.227Z,100024.63
2023-04-13T16:11:01.398Z,100033.75
2023-04-13T16:13:41.429Z,100030.81
2023-04-13T16:16:14.498Z,100032.34
2023-04-13T16:18:41.021Z,100036.38
2023-04-13T16:21:07.418Z,100042.44
2023-04-13T16:23:33.886Z,100048.16
2023-04-13T16:26:01.432Z,100042.66
2023-04-13T16:28:28.906Z,100050.44
2023-04-13T16:30:56.098Z,100048.44
2023-04-13T16:33:22.699Z,100050.34
2023-04-13T16:35:49.199Z,100056.91
2023-04-13T16:38:15.576Z,100053.88
2023-04-13T16:40:42.038Z,100061.00
2023-04-13T16:43:08.441Z,100062.22
2023-04-13T16:45:36.278Z,100064.16
2023-04-13T16:48:02.714Z,100059.28
2023-04-13T16:50:31.493Z,100064.72
2023-04-13T16:52:59.197Z,100063.28
2023-04-13T16:55:28.107Z,100063.09
2023-04-13T16:57:54.718Z,100062.94
2023-04-13T17:00:21.536Z,100069.03
2023-04-13T17:02:48.105Z,100077.78
2023-04-13T17:05:14.795Z,100073.00
2023-04-13T17:07:43.560Z,100080.94
2023-04-13T17:10:13.158Z,100081.16
2023-04-13T17:12:40.338Z,100082.38
2023-04-13T17:15:07.422Z,100085.72
2023-04-13T17:17:34.651Z,100093.69
2023-04-13T17:20:01.748Z,100087.38
2023-04-13T17:22:28.300Z,100088.19
2023-04-13T17:24:55.418Z,100088.78
2023-04-13T17:27:21.836Z,100093.22
2023-04-13T17:29:49.675Z,100104.59
2023-04-13T17:32:16.581Z,100106.25
2023-04-13T17:34:44.627Z,100091.63
2023-04-13T17:37:11.676Z,100101.25
2023-04-13T17:39:42.093Z,100114.47
2023-04-13T17:42:09.457Z,100113.19
2023-04-13T17:44:36.028Z,100120.34
2023-04-13T17:47:02.498Z,100113.63
2023-04-13T17:49:28.947Z,100123.84
2023-04-13T17:51:55.313Z,100130.97
2023-04-13T17:54:21.708Z,100131.16
2023-04-13T17:56:48.197Z,100133.66
2023-04-13T17:59:14.893Z,100136.34
2023-04-13T18:01:43.421Z,100137.59
2023-04-13T18:04:11.691Z,100152.03
2023-04-13T18:06:38.750Z,100155.13
2023-04-13T18:09:05.220Z,100156.38
2023-04-13T18:11:32.012Z,100156.78
2023-04-13T18:13:59.655Z,100163.91
2023-04-13T18:16:26.810Z,100163.31
2023-04-13T18:18:53.731Z,100168.81
2023-04-13T18:21:20.189Z,100171.09
2023-04-13T18:23:46.834Z,100180.78
2023-04-13T18:26:13.233Z,100182.00
2023-04-13T18:28:40.946Z,100181.59
2023-04-13T18:31:07.867Z,100193.13
2023-04-13T18:33:34.309Z,100195.72
2023-04-13T18:36:00.993Z,100192.22
2023-04-13T18:38:27.437Z,100199.47
2023-04-13T18:40:53.931Z,100195.31
2023-04-13T18:43:20.477Z,100205.56
2023-04-13T18:45:46.957Z,100208.50
2023-04-13T18:48:13.477Z,100212.59
2023-04-13T18:50:40.010Z,100221.00
2023-04-13T18:53:06.408Z,100219.50
2023-04-13T18:55:33.042Z,100218.56
2023-04-13T18:57:59.582Z,100217.84
2023-04-13T19:00:26.231Z,100229.41
2023-04-13T19:02:52.963Z,100227.88
2023-04-13T19:05:19.690Z,100229.53
2023-04-13T19:07:58.537Z,100240.94
2023-04-13T19:10:26.307Z,100239.31
2023-04-13T19:12:52.752Z,100249.53
2023-04-13T19:15:19.542Z,100250.44
2023-04-13T19:17:46.923Z,100245.72
2023-04-13T19:20:13.413Z,100252.00
2023-04-13T19:22:39.896Z,100252.38
2023-04-13T19:25:07.458Z,100257.81
2023-04-13T19:27:33.868Z,100262.78
2023-04-13T19:30:00.580Z,100256.38
2023-04-13T19:32:27.067Z,100268.75
2023-04-13T19:34:53.508Z,100260.34
2023-04-13T19:37:19.883Z,100272.00
2023-04-13T19:39:46.389Z,100275.59
2023-04-13T19:42:12.833Z,100272.75
2023-04-13T19:44:39.313Z,100283.00
2023-04-13T19:47:05.861Z,100290.88
2023-04-13T19:49:33.210Z,100288.84
2023-04-13T19:51:59.682Z,100291.97
2023-04-13T19:54:26.109Z,100291.72
2023-04-13T19:56:52.547Z,100295.44
2023-04-13T19:59:19.017Z,100304.88
2023-04-13T20:01:45.898Z,100305.06
2023-04-13T20:04:12.847Z,100307.81
2023-04-13T20:06:39.467Z,100312.09
2023-04-13T20:09:13.932Z,100312.78
2023-04-13T20:11:43.579Z,100317.19
2023-04-13T20:14:11.595Z,100312.69
2023-04-13T20:16:38.210Z,100311.69
2023-04-13T20:19:06.577Z,100315.19
2023-04-13T20:21:34.305Z,100314.28
2023-04-13T20:24:01.138Z,100319.72
2023-04-13T20:26:29.661Z,100315.00
2023-04-13T20:28:57.357Z,100326.91
2023-04-13T20:31:24.985Z,100325.38
2023-04-13T20:33:51.746Z,100323.81
2023-04-13T20:36:21.084Z,100324.47
2023-04-13T20:38:48.222Z,100331.53
2023-04-13T20:41:14.675Z,100332.53
2023-04-13T20:43:41.625Z,100334.50
2023-04-13T20:46:09.829Z,100340.25
2023-04-13T20:51:09.041Z,100361.97
2023-04-13T20:53:37.611Z,100368.47
2023-04-13T20:56:05.267Z,100374.19
2023-04-13T20:58:34.823Z,100372.72
2023-04-13T21:01:01.446Z,100368.81
2023-04-13T21:03:30.550Z,100357.09
2023-04-13T21:05:58.323Z,100372.47
2023-04-13T21:08:25.801Z,100373.47
2023-04-13T21:10:52.276Z,100379.09
2023-04-13T21:13:19.267Z,100385.06
2023-04-13T21:15:45.893Z,100381.09
2023-04-13T21:18:12.291Z,100385.78
2023-04-13T21:20:40.657Z,100380.00
2023-04-13T21:23:07.164Z,100388.97
2023-04-13T21:25:33.594Z,100387.97
2023-04-13T21:28:00.145Z,100386.97
2023-04-13T21:30:26.618Z,100382.28
2023-04-13T21:32:53.044Z,100382.09
2023-04-13T21:35:19.486Z,100382.47
2023-04-13T21:37:45.891Z,100388.97
2023-04-13T21:40:12.504Z,100391.78
2023-04-13T21:42:40.718Z,100382.47
2023-04-13T21:45:07.836Z,100386.06
2023-04-13T21:47:34.293Z,100386.44
2023-04-13T21:50:00.738Z,100384.19
2023-04-13T21:52:28.772Z,100393.31
2023-04-13T21:54:55.350Z,100381.34
2023-04-13T21:57:21.863Z,100390.41
2023-04-13T21:59:48.257Z,100387.78
2023-04-13T22:02:14.748Z,100385.78
2023-04-13T22:04:41.188Z,100385.22
2023-04-13T22:07:07.598Z,100382.59
2023-04-13T22:09:34.107Z,100389.22
2023-04-13T22:12:00.835Z,100381.69
2023-04-13T22:14:27.223Z,100385.72
2023-04-13T22:16:54.040Z,100382.03
2023-04-13T22:19:20.478Z,100387.00
2023-04-13T22:21:46.978Z,100384.19
2023-04-13T22:24:13.765Z,100384.06
2023-04-13T22:26:40.261Z,100390.19
2023-04-13T22:29:07.035Z,100383.16
2023-04-13T22:31:33.637Z,100382.56
2023-04-13T22:34:00.659Z,100378.53
2023-04-13T22:36:27.100Z,100390.03
2023-04-13T22:38:54.723Z,100382.84
2023-04-13T22:41:21.191Z,100393.66
2023-04-13T22:43:47.660Z,100392.03
2023-04-13T22:46:14.094Z,100391.41
2023-04-13T22:48:40.493Z,100389.16
2023-04-13T22:51:07.010Z,100388.53
2023-04-13T22:53:33.482Z,100393.09
2023-04-13T22:56:00.879Z,100390.94
2023-04-13T22:58:28.386Z,100394.94
2023-04-13T23:00:54.956Z,100390.03
2023-04-13T23:03:21.714Z,100397.25
2023-04-13T23:05:48.368Z,100392.66
2023-04-13T23:08:14.886Z,100384.81
2023-04-13T23:10:41.441Z,100391.19
2023-04-13T23:13:07.890Z,100393.47
2023-04-13T23:15:35.443Z,100388.25
2023-04-13T23:18:02.783Z,100398.06
2023-04-13T23:20:29.613Z,100402.41
2023-04-13T23:22:56.002Z,100399.81
2023-04-13T23:25:22.436Z,100401.13
2023-04-13T23:27:48.834Z,100402.09
2023-04-13T23:30:16.163Z,100402.25
2023-04-13T23:32:42.680Z,100408.91
2023-04-13T23:35:09.328Z,100404.00
2023-04-13T23:37:35.880Z,100406.59
2023-04-13T23:40:02.299Z,100401.72
2023-04-13T23:42:28.780Z,100396.63
2023-04-13T23:44:55.338Z,100396.78
2023-04-13T23:47:22.244Z,100400.19
2023-04-13T23:49:48.787Z,100408.38
2023-04-13T23:52:15.213Z,100407.72
2023-04-13T23:54:41.688Z,100408.47
2023-04-13T23:57:09.726Z,100410.59
2023-04-13T23:59:36.099Z,100403.41
